createdAt,value
2023-04-02T00:00:21.467Z,142.57
2023-04-02T00:01:21.512Z,125.82
2023-04-02T00:02:21.633Z,117.55
2023-04-02T00:03:21.728Z,112.76
2023-04-02T00:04:21.700Z,119.26
2023-04-02T00:05:21.748Z,113.39
2023-04-02T00:06:21.800Z,119.39
2023-04-02T00:07:21.853Z,119.42
2023-04-02T00:08:21.898Z,107.53
2023-04-02T00:09:21.953Z,104.31
2023-04-02T00:10:22.007Z,104.58
2023-04-02T00:11:22.062Z,99.00
2023-04-02T00:12:22.117Z,117.95
2023-04-02T00:13:22.170Z,110.76
2023-04-02T00:14:22.218Z,116.68
2023-04-02T00:15:22.271Z,125.90
2023-04-02T00:16:22.370Z,139.15
2023-04-02T00:17:22.405Z,133.13
2023-04-02T00:18:22.470Z,142.65
2023-04-02T00:19:22.488Z,139.94
2023-04-02T00:20:22.561Z,125.49
2023-04-02T00:21:22.603Z,121.62
2023-04-02T00:22:22.672Z,116.84
2023-04-02T00:23:22.720Z,117.26
2023-04-02T00:24:22.766Z,115.75
2023-04-02T00:25:22.837Z,114.61
2023-04-02T00:26:22.888Z,110.02
2023-04-02T00:27:22.955Z,118.18
2023-04-02T00:28:23.024Z,129.48
2023-04-02T00:29:23.078Z,129.10
2023-04-02T00:30:23.128Z,135.21
2023-04-02T00:31:23.427Z,135.24
2023-04-02T00:32:23.247Z,143.66
2023-04-02T00:33:23.310Z,130.88
2023-04-02T00:34:23.350Z,125.33
2023-04-02T00:35:23.419Z,119.55
2023-04-02T00:36:23.542Z,114.43
2023-04-02T00:37:23.516Z,123.69
2023-04-02T00:38:23.573Z,137.70
2023-04-02T00:39:23.626Z,142.07
2023-04-02T00:40:23.697Z,143.98
2023-04-02T00:41:23.752Z,148.71
2023-04-02T00:42:23.810Z,158.92
2023-04-02T00:43:23.861Z,172.09
2023-04-02T00:44:23.920Z,170.85
2023-04-02T00:45:24.021Z,173.46
2023-04-02T00:46:24.069Z,175.01
2023-04-02T00:47:24.085Z,179.19
2023-04-02T00:48:24.158Z,188.82
2023-04-02T00:49:24.209Z,195.34
2023-04-02T00:50:24.263Z,196.69
2023-04-02T00:51:24.324Z,195.92
2023-04-02T00:52:24.393Z,199.55
2023-04-02T00:53:24.427Z,198.98
2023-04-02T00:54:24.479Z,197.09
2023-04-02T00:55:24.532Z,198.52
2023-04-02T00:56:24.596Z,195.97
2023-04-02T00:57:24.676Z,189.79
2023-04-02T00:58:24.730Z,182.95
2023-04-02T00:59:24.848Z,185.30
2023-04-02T01:00:24.912Z,189.69
2023-04-02T01:01:25.036Z,185.23
2023-04-02T01:02:25.045Z,182.75
2023-04-02T01:03:25.060Z,177.17
2023-04-02T01:04:25.068Z,180.18
2023-04-02T01:05:25.096Z,166.45
2023-04-02T01:06:25.092Z,148.37
2023-04-02T01:07:25.119Z,144.73
2023-04-02T01:08:25.129Z,161.82
2023-04-02T01:09:25.166Z,159.11
2023-04-02T01:10:25.175Z,158.85
2023-04-02T01:11:25.186Z,162.53
2023-04-02T01:12:25.198Z,159.53
2023-04-02T01:13:25.237Z,165.92
2023-04-02T01:14:25.232Z,173.66
2023-04-02T01:15:25.244Z,183.43
2023-04-02T01:16:25.394Z,183.78
2023-04-02T01:17:25.332Z,192.64
2023-04-02T01:18:25.324Z,188.97
2023-04-02T01:19:25.379Z,184.24
2023-04-02T01:20:25.429Z,182.04
2023-04-02T01:21:25.504Z,188.80
2023-04-02T01:22:25.550Z,180.59
2023-04-02T01:23:25.610Z,179.23
2023-04-02T01:24:25.666Z,190.73
2023-04-02T01:25:25.728Z,177.56
2023-04-02T01:26:25.779Z,182.19
2023-04-02T01:27:25.834Z,180.28
2023-04-02T01:28:25.880Z,176.46
2023-04-02T01:29:25.946Z,178.06
2023-04-02T01:30:26.012Z,177.11
2023-04-02T01:31:26.112Z,180.79
2023-04-02T01:32:26.158Z,179.42
2023-04-02T01:33:26.191Z,175.54
2023-04-02T01:34:26.771Z,169.98
2023-04-02T01:35:26.309Z,167.02
2023-04-02T01:36:26.349Z,162.58
2023-04-02T01:37:26.420Z,169.81
2023-04-02T01:38:26.472Z,178.98
2023-04-02T01:39:26.515Z,164.16
2023-04-02T01:40:26.557Z,163.01
2023-04-02T01:41:26.635Z,163.17
2023-04-02T01:42:26.734Z,179.56
2023-04-02T01:43:26.719Z,183.39
2023-04-02T01:44:26.788Z,190.29
2023-04-02T01:45:26.847Z,189.13
2023-04-02T01:46:26.980Z,183.45
2023-04-02T01:47:27.005Z,170.55
2023-04-02T01:48:27.027Z,176.56
2023-04-02T01:49:27.103Z,193.96
2023-04-02T01:50:27.128Z,197.84
2023-04-02T01:51:27.197Z,203.60
2023-04-02T01:52:27.247Z,226.58
2023-04-02T01:53:27.293Z,223.84
2023-04-02T01:54:27.359Z,226.84
2023-04-02T01:55:27.424Z,231.44
2023-04-02T01:56:27.467Z,228.33
2023-04-02T01:57:27.588Z,221.00
2023-04-02T01:58:27.574Z,203.94
2023-04-02T01:59:27.630Z,202.62
2023-04-02T02:00:27.735Z,194.76
2023-04-02T02:01:27.757Z,185.56
2023-04-02T02:02:27.892Z,189.32
2023-04-02T02:03:27.863Z,189.52
2023-04-02T02:04:27.919Z,200.12
2023-04-02T02:05:27.987Z,194.79
2023-04-02T02:06:28.033Z,194.08
2023-04-02T02:07:28.100Z,184.71
2023-04-02T02:08:28.135Z,190.58
2023-04-02T02:09:28.191Z,187.66
2023-04-02T02:10:28.251Z,173.70
2023-04-02T02:11:28.310Z,159.06
2023-04-02T02:12:28.431Z,154.35
2023-04-02T02:13:28.406Z,152.84
2023-04-02T02:14:28.478Z,163.19
2023-04-02T02:15:28.546Z,171.11
2023-04-02T02:16:28.647Z,182.33
2023-04-02T02:17:28.707Z,181.11
2023-04-02T02:18:28.734Z,185.65
2023-04-02T02:19:28.799Z,177.61
2023-04-02T02:20:28.834Z,163.52
2023-04-02T02:21:28.959Z,153.17
2023-04-02T02:22:29.001Z,152.58
2023-04-02T02:23:29.037Z,152.49
2023-04-02T02:24:29.099Z,153.23
2023-04-02T02:25:29.170Z,148.29
2023-04-02T02:26:29.208Z,155.85
2023-04-02T02:27:29.277Z,156.10
2023-04-02T02:28:29.327Z,153.32
2023-04-02T02:29:29.373Z,165.53
2023-04-02T02:30:29.448Z,185.18
2023-04-02T02:31:29.513Z,190.87
2023-04-02T02:32:29.632Z,189.22
2023-04-02T02:33:29.629Z,189.80
2023-04-02T02:34:29.673Z,190.02
2023-04-02T02:35:29.721Z,184.89
2023-04-02T02:36:29.786Z,187.27
2023-04-02T02:37:29.849Z,191.84
2023-04-02T02:38:29.903Z,194.14
2023-04-02T02:39:29.952Z,196.18
2023-04-02T02:40:30.041Z,195.10
2023-04-02T02:41:30.075Z,206.15
2023-04-02T02:42:30.152Z,206.68
2023-04-02T02:43:30.191Z,204.24
2023-04-02T02:44:30.235Z,212.85
2023-04-02T02:45:30.291Z,211.82
2023-04-02T02:46:30.398Z,213.36
2023-04-02T02:47:30.448Z,212.06
2023-04-02T02:48:30.478Z,214.39
2023-04-02T02:49:30.545Z,220.18
2023-04-02T02:50:30.575Z,224.75
2023-04-02T02:51:30.648Z,224.71
2023-04-02T02:52:30.698Z,225.75
2023-04-02T02:53:30.755Z,225.74
2023-04-02T02:54:30.809Z,226.40
2023-04-02T02:55:30.889Z,222.66
2023-04-02T02:56:30.949Z,224.33
2023-04-02T02:57:31.191Z,228.68
2023-04-02T02:58:31.046Z,224.43
2023-04-02T02:59:31.118Z,226.72
2023-04-02T03:00:31.199Z,226.68
2023-04-02T03:01:31.276Z,228.68
2023-04-02T03:02:31.430Z,226.98
2023-04-02T03:03:31.540Z,212.87
2023-04-02T03:04:31.459Z,204.39
2023-04-02T03:05:31.497Z,190.83
2023-04-02T03:06:31.564Z,187.46
2023-04-02T03:07:31.614Z,180.22
2023-04-02T03:08:31.672Z,180.89
2023-04-02T03:09:31.753Z,183.54
2023-04-02T03:10:31.796Z,178.25
2023-04-02T03:11:31.858Z,175.68
2023-04-02T03:12:31.939Z,181.52
2023-04-02T03:13:31.999Z,182.25
2023-04-02T03:14:32.056Z,182.38
2023-04-02T03:15:32.144Z,184.36
2023-04-02T03:16:32.179Z,189.22
2023-04-02T03:17:32.265Z,199.48
2023-04-02T03:18:32.294Z,204.21
2023-04-02T03:19:32.383Z,206.10
2023-04-02T03:20:32.433Z,214.69
2023-04-02T03:21:32.483Z,217.09
2023-04-02T03:22:32.542Z,213.60
2023-04-02T03:23:32.604Z,217.48
2023-04-02T03:24:32.701Z,211.44
2023-04-02T03:25:32.973Z,212.21
2023-04-02T03:26:32.823Z,206.19
2023-04-02T03:27:32.872Z,205.77
2023-04-02T03:28:32.917Z,202.97
2023-04-02T03:29:32.991Z,211.52
2023-04-02T03:30:33.054Z,213.69
2023-04-02T03:31:33.152Z,209.69
2023-04-02T03:32:33.198Z,210.15
2023-04-02T03:33:33.241Z,209.21
2023-04-02T03:34:33.294Z,213.70
2023-04-02T03:35:33.595Z,218.33
2023-04-02T03:36:33.403Z,216.56
2023-04-02T03:37:33.467Z,207.19
2023-04-02T03:38:33.532Z,197.68
2023-04-02T03:39:33.607Z,192.74
2023-04-02T03:40:33.661Z,191.36
2023-04-02T03:41:33.711Z,194.23
2023-04-02T03:42:33.779Z,179.48
2023-04-02T03:43:33.843Z,177.79
2023-04-02T03:44:33.899Z,159.68
2023-04-02T03:45:34.308Z,164.75
2023-04-02T03:46:34.088Z,155.71
2023-04-02T03:47:34.168Z,154.60
2023-04-02T03:48:34.145Z,168.12
2023-04-02T03:49:34.206Z,163.18
2023-04-02T03:50:34.275Z,162.31
2023-04-02T03:51:34.354Z,172.77
2023-04-02T03:52:34.411Z,179.06
2023-04-02T03:53:34.449Z,181.41
2023-04-02T03:54:34.529Z,196.06
2023-04-02T03:55:34.739Z,200.89
2023-04-02T03:56:34.644Z,212.90
2023-04-02T03:57:34.722Z,220.37
2023-04-02T03:58:34.821Z,228.25
2023-04-02T03:59:34.854Z,233.37
2023-04-02T04:00:34.873Z,236.13
2023-04-02T04:01:35.004Z,240.22
2023-04-02T04:02:35.067Z,241.35
2023-04-02T04:03:35.066Z,240.26
2023-04-02T04:04:35.162Z,240.33
2023-04-02T04:05:35.419Z,238.14
2023-04-02T04:06:35.267Z,240.75
2023-04-02T04:07:35.324Z,243.32
2023-04-02T04:08:35.397Z,245.94
2023-04-02T04:09:35.492Z,244.00
2023-04-02T04:10:35.514Z,243.14
2023-04-02T04:11:35.564Z,240.86
2023-04-02T04:12:35.634Z,234.97
2023-04-02T04:13:35.702Z,228.89
2023-04-02T04:14:35.747Z,227.68
2023-04-02T04:15:36.027Z,227.69
2023-04-02T04:16:35.931Z,223.27
2023-04-02T04:17:35.964Z,223.85
2023-04-02T04:18:36.016Z,220.24
2023-04-02T04:19:36.077Z,221.87
2023-04-02T04:20:36.137Z,222.23
2023-04-02T04:21:36.209Z,228.10
2023-04-02T04:22:36.268Z,231.35
2023-04-02T04:23:36.340Z,236.45
2023-04-02T04:24:36.398Z,228.10
2023-04-02T04:25:36.634Z,217.01
2023-04-02T04:26:36.524Z,212.60
2023-04-02T04:27:36.577Z,210.27
2023-04-02T04:28:36.639Z,197.87
2023-04-02T04:29:36.691Z,191.02
2023-04-02T04:30:36.758Z,179.81
2023-04-02T04:31:36.868Z,180.66
2023-04-02T04:32:36.946Z,173.35
2023-04-02T04:33:36.968Z,160.06
2023-04-02T04:34:37.023Z,160.81
2023-04-02T04:35:37.411Z,181.44
2023-04-02T04:36:37.152Z,191.80
2023-04-02T04:37:37.238Z,180.57
2023-04-02T04:38:37.287Z,172.67
2023-04-02T04:39:37.354Z,174.45
2023-04-02T04:40:37.418Z,169.48
2023-04-02T04:41:37.489Z,174.23
2023-04-02T04:42:37.540Z,185.41
2023-04-02T04:43:37.592Z,199.60
2023-04-02T04:44:37.677Z,227.17
2023-04-02T04:45:37.846Z,236.50
2023-04-02T04:46:37.785Z,243.17
2023-04-02T04:47:37.943Z,241.54
2023-04-02T04:48:37.918Z,240.17
2023-04-02T04:49:37.967Z,237.52
2023-04-02T04:50:38.057Z,237.92
2023-04-02T04:51:38.094Z,233.54
2023-04-02T04:52:38.184Z,225.90
2023-04-02T04:53:38.236Z,217.82
2023-04-02T04:54:38.297Z,214.73
2023-04-02T04:55:38.387Z,215.68
2023-04-02T04:56:38.408Z,208.83
2023-04-02T04:57:38.472Z,204.81
2023-04-02T04:58:38.549Z,207.20
2023-04-02T04:59:38.621Z,199.14
2023-04-02T05:00:38.673Z,200.20
2023-04-02T05:01:38.770Z,191.91
2023-04-02T05:02:38.808Z,195.30
2023-04-02T05:03:38.839Z,203.79
2023-04-02T05:04:38.923Z,210.70
2023-04-02T05:05:38.956Z,215.03
2023-04-02T05:06:39.046Z,211.24
2023-04-02T05:07:39.093Z,206.84
2023-04-02T05:08:39.155Z,212.63
2023-04-02T05:09:39.198Z,209.98
2023-04-02T05:10:39.294Z,207.56
2023-04-02T05:11:39.336Z,211.23
2023-04-02T05:12:39.398Z,209.50
2023-04-02T05:13:39.441Z,209.72
2023-04-02T05:14:39.514Z,213.08
2023-04-02T05:15:39.739Z,210.18
2023-04-02T05:16:39.854Z,205.57
2023-04-02T05:17:39.728Z,197.02
2023-04-02T05:18:39.756Z,209.39
2023-04-02T05:19:39.830Z,215.87
2023-04-02T05:20:39.872Z,214.14
2023-04-02T05:21:39.952Z,209.35
2023-04-02T05:22:41.394Z,209.78
2023-04-02T05:23:40.080Z,216.52
2023-04-02T05:24:40.127Z,208.92
2023-04-02T05:25:40.191Z,199.60
2023-04-02T05:26:40.239Z,201.45
2023-04-02T05:27:40.310Z,205.26
2023-04-02T05:28:40.377Z,200.39
2023-04-02T05:29:40.440Z,197.85
2023-04-02T05:30:40.532Z,185.02
2023-04-02T05:31:40.595Z,175.90
2023-04-02T05:32:40.649Z,170.82
2023-04-02T05:33:40.637Z,171.92
2023-04-02T05:34:40.693Z,175.90
2023-04-02T05:35:40.784Z,176.49
2023-04-02T05:36:40.800Z,174.47
2023-04-02T05:37:40.864Z,191.28
2023-04-02T05:38:40.936Z,188.39
2023-04-02T05:39:40.993Z,186.39
2023-04-02T05:40:41.082Z,189.57
2023-04-02T05:41:41.113Z,187.49
2023-04-02T05:42:41.193Z,193.09
2023-04-02T05:43:41.232Z,199.10
2023-04-02T05:44:41.293Z,201.65
2023-04-02T05:45:41.350Z,210.74
2023-04-02T05:46:41.457Z,211.95
2023-04-02T05:47:41.874Z,209.12
2023-04-02T05:48:41.570Z,203.75
2023-04-02T05:49:41.622Z,199.94
2023-04-02T05:50:41.666Z,215.71
2023-04-02T05:51:41.735Z,215.58
2023-04-02T05:52:41.800Z,219.66
2023-04-02T05:53:41.873Z,218.92
2023-04-02T05:54:41.923Z,223.54
2023-04-02T05:55:41.985Z,226.76
2023-04-02T05:56:42.039Z,217.36
2023-04-02T05:57:45.836Z,212.44
2023-04-02T05:58:45.565Z,212.61
2023-04-02T05:59:42.082Z,212.72
2023-04-02T06:00:42.109Z,214.07
2023-04-02T06:01:42.144Z,216.71
2023-04-02T06:02:42.139Z,220.25
2023-04-02T06:03:42.140Z,223.94
2023-04-02T06:04:42.051Z,230.01
2023-04-02T06:05:42.080Z,229.46
2023-04-02T06:06:42.045Z,228.56
2023-04-02T06:07:42.035Z,231.81
2023-04-02T06:08:42.051Z,236.83
2023-04-02T06:09:42.022Z,236.44
2023-04-02T06:10:42.027Z,237.74
2023-04-02T06:11:42.025Z,233.60
2023-04-02T06:12:42.051Z,241.47
2023-04-02T06:13:42.014Z,239.78
2023-04-02T06:14:42.010Z,238.61
2023-04-02T06:15:41.992Z,241.41
2023-04-02T06:16:42.013Z,241.55
2023-04-02T06:17:42.032Z,244.18
2023-04-02T06:18:41.952Z,236.53
2023-04-02T06:19:41.994Z,237.51
2023-04-02T06:20:41.965Z,236.65
2023-04-02T06:21:41.945Z,244.07
2023-04-02T06:22:41.960Z,241.86
2023-04-02T06:23:41.961Z,238.64
2023-04-02T06:24:41.927Z,241.93
2023-04-02T06:25:41.917Z,245.68
2023-04-02T06:26:41.914Z,245.62
2023-04-02T06:27:41.917Z,244.86
2023-04-02T06:28:41.908Z,247.20
2023-04-02T06:29:41.889Z,249.69
2023-04-02T06:30:41.943Z,248.44
2023-04-02T06:31:41.879Z,248.78
2023-04-02T06:32:41.938Z,249.70
2023-04-02T06:33:41.881Z,248.89
2023-04-02T06:34:41.864Z,249.54
2023-04-02T06:35:41.921Z,250.00
2023-04-02T06:36:41.916Z,247.54
2023-04-02T06:37:41.944Z,249.43
2023-04-02T06:38:41.969Z,250.00
2023-04-02T06:39:41.993Z,248.42
2023-04-02T06:40:41.999Z,250.00
2023-04-02T06:41:42.018Z,248.94
2023-04-02T06:42:42.056Z,249.90
2023-04-02T06:43:42.069Z,249.46
2023-04-02T06:44:42.095Z,250.00
2023-04-02T06:45:42.169Z,248.56
2023-04-02T06:46:42.103Z,248.48
2023-04-02T06:47:42.189Z,248.78
2023-04-02T06:48:42.115Z,248.71
2023-04-02T06:49:42.126Z,248.56
2023-04-02T06:50:42.160Z,246.70
2023-04-02T06:51:42.135Z,246.26
2023-04-02T06:52:42.136Z,241.99
2023-04-02T06:53:42.133Z,242.25
2023-04-02T06:54:42.175Z,243.33
2023-04-02T06:55:42.130Z,246.37
2023-04-02T06:56:42.115Z,247.57
2023-04-02T06:57:43.040Z,246.42
2023-04-02T06:58:42.149Z,247.05
2023-04-02T06:59:42.185Z,244.48
2023-04-02T07:00:42.184Z,237.24
2023-04-02T07:01:42.257Z,234.79
2023-04-02T07:02:42.304Z,228.70
2023-04-02T07:03:42.306Z,232.58
2023-04-02T07:04:42.424Z,230.41
2023-04-02T07:05:43.190Z,229.24
2023-04-02T07:06:42.488Z,231.21
2023-04-02T07:07:42.536Z,231.72
2023-04-02T07:08:42.603Z,228.27
2023-04-02T07:09:42.677Z,226.21
2023-04-02T07:10:42.723Z,230.63
2023-04-02T07:11:42.777Z,230.23
2023-04-02T07:12:42.852Z,230.12
2023-04-02T07:13:42.904Z,231.37
2023-04-02T07:14:42.931Z,231.29
2023-04-02T07:15:43.036Z,227.48
2023-04-02T07:16:43.033Z,225.65
2023-04-02T07:17:43.102Z,224.51
2023-04-02T07:18:43.090Z,227.74
2023-04-02T07:19:43.142Z,224.73
2023-04-02T07:20:43.167Z,224.08
2023-04-02T07:21:43.207Z,224.51
2023-04-02T07:22:43.234Z,224.04
2023-04-02T07:23:43.259Z,225.46
2023-04-02T07:24:43.268Z,225.91
2023-04-02T07:25:43.285Z,222.13
2023-04-02T07:26:43.321Z,221.26
2023-04-02T07:27:43.342Z,222.87
2023-04-02T07:28:43.332Z,221.84
2023-04-02T07:29:43.347Z,219.95
2023-04-02T07:30:43.330Z,219.94
2023-04-02T07:31:43.449Z,221.30
2023-04-02T07:32:43.364Z,220.57
2023-04-02T07:33:43.366Z,219.95
2023-04-02T07:34:43.383Z,219.04
2023-04-02T07:35:43.426Z,218.20
2023-04-02T07:36:43.423Z,217.13
2023-04-02T07:37:43.430Z,218.33
2023-04-02T07:38:43.445Z,218.16
2023-04-02T07:39:43.528Z,217.43
2023-04-02T07:40:43.565Z,215.43
2023-04-02T07:41:43.590Z,216.64
2023-04-02T07:42:43.616Z,217.49
2023-04-02T07:43:43.593Z,217.65
2023-04-02T07:44:43.616Z,217.29
2023-04-02T07:45:43.614Z,217.59
2023-04-02T07:46:43.632Z,214.93
2023-04-02T07:47:43.615Z,214.61
2023-04-02T07:48:43.617Z,217.28
2023-04-02T07:49:43.600Z,214.00
2023-04-02T07:50:43.592Z,215.80
2023-04-02T07:51:43.612Z,216.26
2023-04-02T07:52:43.625Z,211.92
2023-04-02T07:53:43.608Z,216.22
2023-04-02T07:54:43.610Z,213.32
2023-04-02T07:55:43.623Z,212.86
2023-04-02T07:56:43.692Z,209.78
2023-04-02T07:57:46.377Z,212.35
2023-04-02T07:58:43.784Z,209.71
2023-04-02T07:59:43.717Z,203.60
2023-04-02T08:00:43.709Z,206.12
2023-04-02T08:01:43.776Z,204.16
2023-04-02T08:02:43.745Z,208.04
2023-04-02T08:03:43.858Z,205.72
2023-04-02T08:04:43.709Z,202.99
2023-04-02T08:05:43.702Z,200.12
2023-04-02T08:06:43.715Z,204.13
2023-04-02T08:07:43.680Z,198.62
2023-04-02T08:08:43.687Z,196.40
2023-04-02T08:09:43.654Z,195.71
2023-04-02T08:10:43.666Z,194.09
2023-04-02T08:11:43.671Z,192.70
2023-04-02T08:12:43.636Z,194.56
2023-04-02T08:13:43.650Z,197.03
2023-04-02T08:14:43.651Z,192.14
2023-04-02T08:15:43.614Z,191.07
2023-04-02T08:16:43.629Z,189.37
2023-04-02T08:17:43.684Z,190.19
2023-04-02T08:18:43.614Z,188.08
2023-04-02T08:19:54.254Z,189.36
2023-04-02T08:20:44.598Z,189.53
2023-04-02T08:21:43.596Z,190.09
2023-04-02T08:22:43.584Z,187.75
2023-04-02T08:23:43.624Z,186.02
2023-04-02T08:24:43.645Z,180.73
2023-04-02T08:25:43.554Z,182.60
2023-04-02T08:26:45.479Z,183.94
2023-04-02T08:27:43.544Z,181.91
2023-04-02T08:28:43.563Z,180.99
2023-04-02T08:29:43.544Z,177.07
2023-04-02T08:30:43.597Z,174.61
2023-04-02T08:31:43.585Z,176.40
2023-04-02T08:32:43.669Z,178.40
2023-04-02T08:33:43.655Z,180.08
2023-04-02T08:34:43.694Z,180.88
2023-04-02T08:35:43.756Z,180.30
2023-04-02T08:36:43.784Z,178.19
2023-04-02T08:37:43.798Z,177.59
2023-04-02T08:38:43.863Z,174.97
2023-04-02T08:39:43.863Z,172.62
2023-04-02T08:40:43.892Z,174.02
2023-04-02T08:41:43.910Z,167.51
2023-04-02T08:42:43.951Z,168.24
2023-04-02T08:43:44.024Z,167.19
2023-04-02T08:44:43.976Z,166.76
2023-04-02T08:45:44.040Z,170.29
2023-04-02T08:46:44.034Z,170.61
2023-04-02T08:47:44.076Z,169.90
2023-04-02T08:48:44.103Z,168.89
2023-04-02T08:49:44.101Z,166.30
2023-04-02T08:50:44.124Z,163.57
2023-04-02T08:51:44.145Z,164.97
2023-04-02T08:52:44.168Z,158.35
2023-04-02T08:53:44.176Z,159.99
2023-04-02T08:54:44.200Z,158.81
2023-04-02T08:55:44.291Z,159.10
2023-04-02T08:56:44.257Z,152.12
2023-04-02T08:57:44.260Z,151.94
2023-04-02T08:58:44.294Z,154.59
2023-04-02T08:59:44.327Z,146.22
2023-04-02T09:00:44.322Z,144.63
2023-04-02T09:01:44.459Z,150.61
2023-04-02T09:02:44.394Z,149.14
2023-04-02T09:03:44.393Z,147.07
2023-04-02T09:04:44.430Z,149.40
2023-04-02T09:05:44.450Z,150.32
2023-04-02T09:06:44.505Z,143.57
2023-04-02T09:07:44.532Z,141.00
2023-04-02T09:08:44.563Z,143.68
2023-04-02T09:09:44.596Z,146.56
2023-04-02T09:10:44.619Z,144.17
2023-04-02T09:11:44.660Z,145.45
2023-04-02T09:12:44.708Z,143.01
2023-04-02T09:13:44.749Z,136.99
2023-04-02T09:14:44.780Z,140.18
2023-04-02T09:15:44.944Z,135.63
2023-04-02T09:16:44.830Z,133.36
2023-04-02T09:17:53.639Z,132.21
2023-04-02T09:18:45.923Z,132.44
2023-04-02T09:19:44.882Z,133.33
2023-04-02T09:20:44.866Z,132.08
2023-04-02T09:21:44.852Z,122.69
2023-04-02T09:22:44.841Z,118.51
2023-04-02T09:23:44.837Z,114.76
2023-04-02T09:24:44.840Z,117.59
2023-04-02T09:25:51.054Z,110.59
2023-04-02T09:26:45.841Z,110.84
2023-04-02T09:27:44.816Z,110.79
2023-04-02T09:28:44.813Z,110.22
2023-04-02T09:29:44.838Z,109.38
2023-04-02T09:30:44.819Z,108.39
2023-04-02T09:31:44.815Z,108.62
2023-04-02T09:32:44.880Z,107.02
2023-04-02T09:33:44.817Z,106.02
2023-04-02T09:34:44.806Z,110.28
2023-04-02T09:35:44.878Z,111.03
2023-04-02T09:36:44.769Z,106.17
2023-04-02T09:37:44.769Z,107.89
2023-04-02T09:38:44.836Z,99.55
2023-04-02T09:39:44.935Z,98.26
2023-04-02T09:40:44.907Z,103.95
2023-04-02T09:41:48.200Z,99.68
2023-04-02T09:42:45.971Z,99.80
2023-04-02T09:43:44.970Z,93.45
2023-04-02T09:44:44.939Z,99.98
2023-04-02T09:45:44.940Z,92.61
2023-04-02T09:46:44.991Z,99.03
2023-04-02T09:47:44.972Z,100.84
2023-04-02T09:48:44.920Z,101.18
2023-04-02T09:49:44.948Z,102.57
2023-04-02T09:50:44.915Z,108.91
2023-04-02T09:51:44.899Z,100.21
2023-04-02T09:52:44.915Z,103.48
2023-04-02T09:53:44.960Z,109.10
2023-04-02T09:54:45.023Z,103.75
2023-04-02T09:55:45.088Z,101.26
2023-04-02T09:56:45.134Z,106.46
2023-04-02T09:57:45.203Z,106.13
2023-04-02T09:58:45.259Z,101.47
2023-04-02T09:59:45.309Z,101.95
2023-04-02T10:00:45.589Z,103.21
2023-04-02T10:01:45.452Z,102.91
2023-04-02T10:02:45.529Z,102.20
2023-04-02T10:03:45.562Z,113.76
2023-04-02T10:04:45.666Z,111.58
2023-04-02T10:05:46.022Z,108.55
2023-04-02T10:06:45.726Z,112.81
2023-04-02T10:07:45.787Z,110.37
2023-04-02T10:08:45.822Z,110.75
2023-04-02T10:09:45.856Z,122.21
2023-04-02T10:10:45.901Z,115.84
2023-04-02T10:11:46.848Z,115.15
2023-04-02T10:12:45.984Z,117.36
2023-04-02T10:13:46.023Z,107.55
2023-04-02T10:14:46.049Z,117.84
2023-04-02T10:15:46.053Z,123.66
2023-04-02T10:16:46.149Z,117.30
2023-04-02T10:17:46.136Z,112.55
2023-04-02T10:18:46.100Z,116.36
2023-04-02T10:19:46.099Z,118.26
2023-04-02T10:20:51.198Z,113.37
2023-04-02T10:21:47.080Z,113.56
2023-04-02T10:22:46.058Z,113.63
2023-04-02T10:23:46.100Z,114.31
2023-04-02T10:24:46.064Z,118.75
2023-04-02T10:25:46.051Z,116.74
2023-04-02T10:26:46.047Z,121.89
2023-04-02T10:27:46.046Z,120.02
2023-04-02T10:28:46.063Z,117.99
2023-04-02T10:29:46.036Z,124.00
2023-04-02T10:30:46.085Z,119.60
2023-04-02T10:31:46.014Z,119.16
2023-04-02T10:32:46.007Z,116.64
2023-04-02T10:33:46.005Z,118.49
2023-04-02T10:34:45.993Z,118.27
2023-04-02T10:35:45.994Z,112.57
2023-04-02T10:36:45.985Z,117.97
2023-04-02T10:37:45.976Z,117.37
2023-04-02T10:38:45.954Z,114.75
2023-04-02T10:39:45.974Z,116.62
2023-04-02T10:40:45.958Z,120.79
2023-04-02T10:41:45.936Z,113.09
2023-04-02T10:42:45.931Z,108.03
2023-04-02T10:43:45.944Z,115.97
2023-04-02T10:44:45.949Z,118.90
2023-04-02T10:45:45.938Z,108.66
2023-04-02T10:46:45.924Z,112.44
2023-04-02T10:47:45.937Z,110.90
2023-04-02T10:48:45.891Z,108.85
2023-04-02T10:49:45.932Z,101.64
2023-04-02T10:50:45.891Z,105.57
2023-04-02T10:51:45.908Z,104.48
2023-04-02T10:52:45.920Z,98.39
2023-04-02T10:53:45.870Z,103.24
2023-04-02T10:54:45.877Z,108.68
2023-04-02T10:55:45.858Z,109.92
2023-04-02T10:56:51.177Z,104.45
2023-04-02T10:57:46.867Z,104.61
2023-04-02T10:58:45.837Z,105.27
2023-04-02T10:59:45.852Z,106.20
2023-04-02T11:00:45.873Z,108.99
2023-04-02T11:01:45.882Z,111.88
2023-04-02T11:02:45.924Z,113.67
2023-04-02T11:03:45.931Z,108.38
2023-04-02T11:04:45.808Z,113.64
2023-04-02T11:05:45.788Z,109.91
2023-04-02T11:06:45.783Z,113.45
2023-04-02T11:07:45.787Z,107.44
2023-04-02T11:08:45.766Z,104.01
2023-04-02T11:09:45.784Z,105.70
2023-04-02T11:10:45.791Z,103.99
2023-04-02T11:11:45.760Z,104.36
2023-04-02T11:12:45.747Z,108.99
2023-04-02T11:13:45.735Z,107.20
2023-04-02T11:14:45.739Z,113.16
2023-04-02T11:15:45.767Z,109.08
2023-04-02T11:16:45.819Z,107.86
2023-04-02T11:17:45.786Z,109.70
2023-04-02T11:18:45.793Z,110.19
2023-04-02T11:19:45.854Z,114.97
2023-04-02T11:20:45.940Z,109.78
2023-04-02T11:21:57.869Z,112.24
2023-04-02T11:22:46.988Z,108.34
2023-04-02T11:23:45.970Z,112.26
2023-04-02T11:24:45.973Z,106.76
2023-04-02T11:25:46.000Z,111.05
2023-04-02T11:26:45.967Z,115.77
2023-04-02T11:27:45.940Z,113.01
2023-04-02T11:28:45.952Z,116.06
2023-04-02T11:29:45.941Z,114.60
2023-04-02T11:30:45.949Z,113.06
2023-04-02T11:31:45.994Z,113.40
2023-04-02T11:32:46.052Z,118.44
2023-04-02T11:33:48.083Z,113.16
2023-04-02T11:34:47.052Z,119.27
2023-04-02T11:35:46.119Z,119.30
2023-04-02T11:36:46.013Z,111.69
2023-04-02T11:37:46.028Z,107.51
2023-04-02T11:38:45.992Z,112.92
2023-04-02T11:39:46.002Z,112.80
2023-04-02T11:40:46.018Z,112.06
2023-04-02T11:41:45.974Z,106.30
2023-04-02T11:42:45.985Z,114.45
2023-04-02T11:43:45.969Z,114.31
2023-04-02T11:44:45.963Z,116.48
2023-04-02T11:45:52.835Z,113.37
2023-04-02T11:46:47.042Z,111.92
2023-04-02T11:47:45.982Z,113.27
2023-04-02T11:48:45.947Z,113.99
2023-04-02T11:49:45.937Z,110.17
2023-04-02T11:50:45.954Z,103.34
2023-04-02T11:51:45.935Z,104.10
2023-04-02T11:52:45.916Z,107.16
2023-04-02T11:53:45.899Z,106.81
2023-04-02T11:54:45.901Z,110.09
2023-04-02T11:55:45.883Z,111.29
2023-04-02T11:56:45.877Z,107.38
2023-04-02T11:57:45.880Z,105.88
2023-04-02T11:58:45.873Z,103.85
2023-04-02T11:59:45.855Z,99.79
2023-04-02T12:00:45.872Z,101.21
2023-04-02T12:01:45.911Z,99.56
2023-04-02T12:02:45.914Z,105.49
2023-04-02T12:03:45.835Z,107.80
2023-04-02T12:04:45.888Z,100.95
2023-04-02T12:05:45.930Z,104.64
2023-04-02T12:06:45.856Z,103.07
2023-04-02T12:07:45.865Z,101.06
2023-04-02T12:08:57.013Z,105.06
2023-04-02T12:09:46.882Z,105.17
2023-04-02T12:10:45.898Z,105.88
2023-04-02T12:11:45.858Z,108.44
2023-04-02T12:12:45.865Z,102.51
2023-04-02T12:13:45.863Z,104.52
2023-04-02T12:14:45.865Z,111.06
2023-04-02T12:15:45.853Z,106.44
2023-04-02T12:16:45.892Z,105.06
2023-04-02T12:17:45.861Z,109.78
2023-04-02T12:18:45.813Z,108.08
2023-04-02T12:19:45.835Z,113.07
2023-04-02T12:20:45.795Z,108.11
2023-04-02T12:21:45.789Z,109.55
2023-04-02T12:22:45.786Z,104.83
2023-04-02T12:23:45.792Z,100.16
2023-04-02T12:24:45.798Z,105.08
2023-04-02T12:25:45.791Z,104.55
2023-04-02T12:26:45.801Z,102.20
2023-04-02T12:27:45.854Z,103.41
2023-04-02T12:28:45.869Z,103.01